sensor_id;sensor_type;location;lat;lon;timestamp;pressure;altitude;pressure_sealevel;temperature;humidity
12051;BME280;6086;43.546;26.474;2022-08-19T00:00:31;98799.72;;;22.75;100.00
12051;BME280;6086;43.546;26.474;2022-08-19T00:02:58;98799.47;;;22.72;100.00
12051;BME280;6086;43.546;26.474;2022-08-19T00:05:25;98802.84;;;22.64;100.00
12051;BME280;6086;43.546;26.474;2022-08-19T00:07:52;98802.84;;;22.64;100.00
12051;BME280;6086;43.546;26.474;2022-08-19T00:10:19;98802.06;;;22.58;100.00
12051;BME280;6086;43.546;26.474;2022-08-19T00:12:47;98801.31;;;22.53;100.00
12051;BME280;6086;43.546;26.474;2022-08-19T00:15:17;98794.50;;;22.50;100.00
12051;BME280;6086;43.546;26.474;2022-08-19T00:17:47;98808.94;;;22.51;100.00
12051;BME280;6086;43.546;26.474;2022-08-19T00:20:18;98816.06;;;22.47;100.00
12051;BME280;6086;43.546;26.474;2022-08-19T00:22:46;98812.81;;;22.40;100.00
12051;BME280;6086;43.546;26.474;2022-08-19T00:25:14;98818.28;;;22.40;100.00
12051;BME280;6086;43.546;26.474;2022-08-19T00:27:41;98807.69;;;22.33;100.00
12051;BME280;6086;43.546;26.474;2022-08-19T00:30:09;98803.59;;;22.36;100.00
12051;BME280;6086;43.546;26.474;2022-08-19T00:32:36;98812.56;;;22.36;100.00
12051;BME280;6086;43.546;26.474;2022-08-19T00:35:06;98804.63;;;22.40;100.00
12051;BME280;6086;43.546;26.474;2022-08-19T00:37:34;98803.00;;;22.39;100.00
12051;BME280;6086;43.546;26.474;2022-08-19T00:40:03;98803.28;;;22.37;100.00
12051;BME280;6086;43.546;26.474;2022-08-19T00:42:31;98804.44;;;22.31;100.00
12051;BME280;6086;43.546;26.474;2022-08-19T00:44:58;98804.47;;;22.26;100.00
12051;BME280;6086;43.546;26.474;2022-08-19T00:47:25;98810.78;;;22.22;100.00
12051;BME280;6086;43.546;26.474;2022-08-19T00:49:55;98802.59;;;22.22;100.00
12051;BME280;6086;43.546;26.474;2022-08-19T00:52:26;98797.22;;;22.12;100.00
12051;BME280;6086;43.546;26.474;2022-08-19T00:54:56;98793.44;;;22.08;100.00
12051;BME280;6086;43.546;26.474;2022-08-19T00:57:27;98791.31;;;22.00;100.00
12051;BME280;6086;43.546;26.474;2022-08-19T00:59:56;98788.03;;;21.98;100.00
12051;BME280;6086;43.546;26.474;2022-08-19T01:02:25;98793.84;;;21.87;100.00
12051;BME280;6086;43.546;26.474;2022-08-19T01:04:53;98803.94;;;21.86;100.00
12051;BME280;6086;43.546;26.474;2022-08-19T01:07:20;98807.25;;;21.78;100.00
12051;BME280;6086;43.546;26.474;2022-08-19T01:09:48;98789.28;;;21.77;100.00
12051;BME280;6086;43.546;26.474;2022-08-19T01:12:16;98801.59;;;21.70;100.00
12051;BME280;6086;43.546;26.474;2022-08-19T01:14:44;98804.88;;;21.62;100.00
12051;BME280;6086;43.546;26.474;2022-08-19T01:17:11;98795.66;;;21.53;100.00
12051;BME280;6086;43.546;26.474;2022-08-19T01:19:41;98798.91;;;21.50;100.00
12051;BME280;6086;43.546;26.474;2022-08-19T01:22:11;98785.59;;;21.43;100.00
12051;BME280;6086;43.546;26.474;2022-08-19T01:24:40;98796.50;;;21.43;100.00
12051;BME280;6086;43.546;26.474;2022-08-19T01:27:08;98794.34;;;21.35;100.00
12051;BME280;6086;43.546;26.474;2022-08-19T01:29:40;98804.50;;;21.25;100.00
12051;BME280;6086;43.546;26.474;2022-08-19T01:32:09;98788.41;;;21.18;100.00
12051;BME280;6086;43.546;26.474;2022-08-19T01:34:37;98793.91;;;21.13;100.00
12051;BME280;6086;43.546;26.474;2022-08-19T01:37:06;98800.44;;;21.07;100.00
12051;BME280;6086;43.546;26.474;2022-08-19T01:39:34;98802.09;;;21.03;100.00
12051;BME280;6086;43.546;26.474;2022-08-19T01:42:03;98799.66;;;21.02;100.00
12051;BME280;6086;43.546;26.474;2022-08-19T01:44:30;98802.63;;;21.00;100.00
12051;BME280;6086;43.546;26.474;2022-08-19T01:46:57;98799.66;;;21.02;100.00
12051;BME280;6086;43.546;26.474;2022-08-19T01:49:25;98797.19;;;21.00;100.00
12051;BME280;6086;43.546;26.474;2022-08-19T01:51:53;98796.91;;;21.02;100.00
12051;BME280;6086;43.546;26.474;2022-08-19T01:54:34;98801.53;;;21.01;100.00
12051;BME280;6086;43.546;26.474;2022-08-19T01:57:05;98796.91;;;21.02;100.00
12051;BME280;6086;43.546;26.474;2022-08-19T01:59:33;98801.53;;;21.01;100.00
12051;BME280;6086;43.546;26.474;2022-08-19T02:02:02;98804.25;;;21.01;100.00
12051;BME280;6086;43.546;26.474;2022-08-19T02:04:32;98804.03;;;20.98;100.00
12051;BME280;6086;43.546;26.474;2022-08-19T02:06:59;98798.59;;;20.93;100.00
12051;BME280;6086;43.546;26.474;2022-08-19T02:09:27;98806.22;;;20.91;100.00
12051;BME280;6086;43.546;26.474;2022-08-19T02:11:54;98801.31;;;20.88;100.00
12051;BME280;6086;43.546;26.474;2022-08-19T02:14:42;98800.22;;;20.89;100.00
12051;BME280;6086;43.546;26.474;2022-08-19T02:17:09;98805.13;;;20.87;100.00
12051;BME280;6086;43.546;26.474;2022-08-19T02:19:36;98802.66;;;20.85;100.00
12051;BME280;6086;43.546;26.474;2022-08-19T02:22:04;98799.41;;;20.73;100.00
12051;BME280;6086;43.546;26.474;2022-08-19T02:24:31;98799.16;;;20.65;100.00
12051;BME280;6086;43.546;26.474;2022-08-19T02:26:58;98811.94;;;20.69;100.00
12051;BME280;6086;43.546;26.474;2022-08-19T02:29:25;98809.50;;;20.63;100.00
12051;BME280;6086;43.546;26.474;2022-08-19T02:31:53;98806.75;;;20.43;100.00
12051;BME280;6086;43.546;26.474;2022-08-19T02:34:38;98807.31;;;20.35;100.00
12051;BME280;6086;43.546;26.474;2022-08-19T02:37:06;98808.94;;;20.31;100.00
12051;BME280;6086;43.546;26.474;2022-08-19T02:39:53;98807.31;;;20.25;100.00
12051;BME280;6086;43.546;26.474;2022-08-19T02:42:18;98811.13;;;20.19;100.00
12051;BME280;6086;43.546;26.474;2022-08-19T02:44:45;98817.38;;;20.09;100.00
12051;BME280;6086;43.546;26.474;2022-08-19T02:47:13;98819.81;;;20.06;100.00
12051;BME280;6086;43.546;26.474;2022-08-19T02:49:40;98821.41;;;20.02;100.00
12051;BME280;6086;43.546;26.474;2022-08-19T02:52:07;98816.22;;;20.00;100.00
12051;BME280;6086;43.546;26.474;2022-08-19T02:54:36;98827.66;;;20.02;100.00
12051;BME280;6086;43.546;26.474;2022-08-19T02:57:04;98827.16;;;20.05;100.00
12051;BME280;6086;43.546;26.474;2022-08-19T02:59:32;98822.78;;;20.04;100.00
12051;BME280;6086;43.546;26.474;2022-08-19T03:01:59;98830.09;;;19.99;100.00
12051;BME280;6086;43.546;26.474;2022-08-19T03:04:27;98832.25;;;19.97;100.00
12051;BME280;6086;43.546;26.474;2022-08-19T03:06:55;98840.13;;;19.93;100.00
12051;BME280;6086;43.546;26.474;2022-08-19T03:09:22;98837.13;;;19.90;100.00
12051;BME280;6086;43.546;26.474;2022-08-19T03:11:49;98839.84;;;19.90;100.00
12051;BME280;6086;43.546;26.474;2022-08-19T03:14:16;98830.06;;;19.89;100.00
12051;BME280;6086;43.546;26.474;2022-08-19T03:16:45;98834.41;;;19.90;100.00
12051;BME280;6086;43.546;26.474;2022-08-19T03:19:13;98837.13;;;19.90;100.00
12051;BME280;6086;43.546;26.474;2022-08-19T03:21:43;98828.44;;;19.98;100.00
12051;BME280;6086;43.546;26.474;2022-08-19T03:24:12;98831.44;;;20.01;100.00
12051;BME280;6086;43.546;26.474;2022-08-19T03:26:40;98836.63;;;20.03;100.00
12051;BME280;6086;43.546;26.474;2022-08-19T03:29:08;98845.31;;;20.00;100.00
12051;BME280;6086;43.546;26.474;2022-08-19T03:31:38;98841.00;;;20.04;100.00
12051;BME280;6086;43.546;26.474;2022-08-19T03:34:05;98847.47;;;19.98;100.00
12051;BME280;6086;43.546;26.474;2022-08-19T03:36:32;98843.09;;;19.92;100.00
12051;BME280;6086;43.546;26.474;2022-08-19T03:39:01;98843.97;;;19.97;100.00
12051;BME280;6086;43.546;26.474;2022-08-19T03:41:30;98852.94;;;20.03;100.00
12051;BME280;6086;43.546;26.474;2022-08-19T03:44:05;98847.81;;;20.06;100.00
12051;BME280;6086;43.546;26.474;2022-08-19T03:46:33;98848.31;;;20.03;100.00
12051;BME280;6086;43.546;26.474;2022-08-19T03:49:02;98856.50;;;20.08;100.00
12051;BME280;6086;43.546;26.474;2022-08-19T03:51:35;98860.88;;;20.19;100.00
12051;BME280;6086;43.546;26.474;2022-08-19T03:54:07;98858.72;;;20.36;100.00
12051;BME280;6086;43.546;26.474;2022-08-19T03:56:36;98862.00;;;20.63;100.00
12051;BME280;6086;43.546;26.474;2022-08-19T03:59:04;98866.63;;;20.88;100.00
12051;BME280;6086;43.546;26.474;2022-08-19T04:01:32;98861.69;;;21.15;100.00
12051;BME280;6086;43.546;26.474;2022-08-19T04:03:59;98863.78;;;21.48;100.00
12051;BME280;6086;43.546;26.474;2022-08-19T04:06:30;98869.19;;;21.68;100.00
12051;BME280;6086;43.546;26.474;2022-08-19T04:08:59;98878.88;;;21.94;100.00
12051;BME280;6086;43.546;26.474;2022-08-19T04:11:30;98867.88;;;22.14;100.00
12051;BME280;6086;43.546;26.474;2022-08-19T04:13:57;98875.34;;;22.36;100.00
12051;BME280;6086;43.546;26.474;2022-08-19T04:16:26;98879.19;;;22.74;100.00
12051;BME280;6086;43.546;26.474;2022-08-19T04:18:54;98887.53;;;22.87;100.00
12051;BME280;6086;43.546;26.474;2022-08-19T04:21:25;98879.38;;;23.11;100.00
12051;BME280;6086;43.546;26.474;2022-08-19T04:23:52;98887.00;;;23.19;100.00
12051;BME280;6086;43.546;26.474;2022-08-19T04:26:22;98883.53;;;23.37;100.00
12051;BME280;6086;43.546;26.474;2022-08-19T04:28:51;98887.47;;;23.49;100.00
12051;BME280;6086;43.546;26.474;2022-08-19T04:31:22;98886.16;;;23.94;100.00
12051;BME280;6086;43.546;26.474;2022-08-19T04:33:51;98898.72;;;24.13;100.00
12051;BME280;6086;43.546;26.474;2022-08-19T04:36:21;98896.75;;;24.37;100.00
12051;BME280;6086;43.546;26.474;2022-08-19T04:38:49;98901.50;;;24.69;100.00
12051;BME280;6086;43.546;26.474;2022-08-19T04:41:17;98907.72;;;24.74;100.00
12051;BME280;6086;43.546;26.474;2022-08-19T04:44:03;98909.38;;;24.89;100.00
12051;BME280;6086;43.546;26.474;2022-08-19T04:46:30;98909.22;;;24.99;100.00
12051;BME280;6086;43.546;26.474;2022-08-19T04:48:58;98909.53;;;25.43;100.00
12051;BME280;6086;43.546;26.474;2022-08-19T04:51:25;98912.13;;;25.66;100.00
12051;BME280;6086;43.546;26.474;2022-08-19T04:53:53;98913.75;;;25.80;100.00
12051;BME280;6086;43.546;26.474;2022-08-19T04:56:20;98915.81;;;25.88;100.00
12051;BME280;6086;43.546;26.474;2022-08-19T04:58:48;98909.41;;;25.93;100.00
12051;BME280;6086;43.546;26.474;2022-08-19T05:01:20;98904.81;;;26.15;100.00
12051;BME280;6086;43.546;26.474;2022-08-19T05:03:48;98912.78;;;26.39;100.00
12051;BME280;6086;43.546;26.474;2022-08-19T05:06:17;98908.63;;;26.55;100.00
12051;BME280;6086;43.546;26.474;2022-08-19T05:08:45;98919.06;;;26.88;100.00
12051;BME280;6086;43.546;26.474;2022-08-19T05:11:14;98921.28;;;27.08;100.00
12051;BME280;6086;43.546;26.474;2022-08-19T05:14:14;98919.81;;;26.80;100.00
12051;BME280;6086;43.546;26.474;2022-08-19T05:16:43;98918.88;;;26.85;100.00
12051;BME280;6086;43.546;26.474;2022-08-19T05:19:09;98915.81;;;26.86;100.00
12051;BME280;6086;43.546;26.474;2022-08-19T05:21:54;98919.84;;;26.67;100.00
12051;BME280;6086;43.546;26.474;2022-08-19T05:24:38;98924.31;;;26.76;100.00
12051;BME280;6086;43.546;26.474;2022-08-19T05:27:05;98928.03;;;27.16;100.00
12051;BME280;6086;43.546;26.474;2022-08-19T05:29:33;98924.38;;;27.29;100.00
12051;BME280;6086;43.546;26.474;2022-08-19T05:32:03;98913.94;;;27.48;100.00
12051;BME280;6086;43.546;26.474;2022-08-19T05:34:31;98917.75;;;26.86;100.00
12051;BME280;6086;43.546;26.474;2022-08-19T05:36:58;98926.16;;;26.18;100.00
12051;BME280;6086;43.546;26.474;2022-08-19T05:39:27;98916.03;;;26.41;100.00
12051;BME280;6086;43.546;26.474;2022-08-19T05:41:56;98916.50;;;26.07;100.00
12051;BME280;6086;43.546;26.474;2022-08-19T05:44:25;98921.59;;;25.87;100.00
12051;BME280;6086;43.546;26.474;2022-08-19T05:46:53;98914.88;;;25.79;100.00
12051;BME280;6086;43.546;26.474;2022-08-19T05:49:22;98909.22;;;25.89;100.00
12051;BME280;6086;43.546;26.474;2022-08-19T05:51:51;98919.75;;;25.82;100.00
12051;BME280;6086;43.546;26.474;2022-08-19T05:54:18;98910.41;;;25.97;100.00
12051;BME280;6086;43.546;26.474;2022-08-19T05:56:46;98913.44;;;25.82;100.00
12051;BME280;6086;43.546;26.474;2022-08-19T05:59:15;98910.91;;;25.99;100.00
12051;BME280;6086;43.546;26.474;2022-08-19T06:01:45;98913.56;;;25.90;100.00
12051;BME280;6086;43.546;26.474;2022-08-19T06:04:16;98899.13;;;25.98;100.00
12051;BME280;6086;43.546;26.474;2022-08-19T06:06:45;98906.50;;;26.25;100.00
12051;BME280;6086;43.546;26.474;2022-08-19T06:09:13;98913.22;;;26.32;100.00
12051;BME280;6086;43.546;26.474;2022-08-19T06:11:41;98907.28;;;26.39;100.00
12051;BME280;6086;43.546;26.474;2022-08-19T06:14:13;98904.59;;;26.61;100.00
12051;BME280;6086;43.546;26.474;2022-08-19T06:16:42;98907.75;;;26.68;100.00
12051;BME280;6086;43.546;26.474;2022-08-19T06:19:11;98909.63;;;27.03;100.00
12051;BME280;6086;43.546;26.474;2022-08-19T06:21:40;98910.63;;;27.29;100.00
12051;BME280;6086;43.546;26.474;2022-08-19T06:24:11;98905.03;;;27.42;100.00
12051;BME280;6086;43.546;26.474;2022-08-19T06:26:41;98902.22;;;27.64;100.00
12051;BME280;6086;43.546;26.474;2022-08-19T06:29:10;98902.16;;;27.86;100.00
12051;BME280;6086;43.546;26.474;2022-08-19T06:31:41;98899.78;;;28.02;100.00
12051;BME280;6086;43.546;26.474;2022-08-19T06:34:08;98909.56;;;28.16;100.00
12051;BME280;6086;43.546;26.474;2022-08-19T06:36:37;98910.53;;;28.29;100.00
12051;BME280;6086;43.546;26.474;2022-08-19T06:39:06;98902.50;;;28.41;100.00
12051;BME280;6086;43.546;26.474;2022-08-19T06:41:38;98898.94;;;28.49;100.00
12051;BME280;6086;43.546;26.474;2022-08-19T06:44:08;98897.44;;;28.51;99.92
12051;BME280;6086;43.546;26.474;2022-08-19T06:46:36;98897.78;;;28.50;97.21
12051;BME280;6086;43.546;26.474;2022-08-19T06:49:03;98889.34;;;28.55;98.21
12051;BME280;6086;43.546;26.474;2022-08-19T06:51:30;98892.44;;;28.62;97.95
12051;BME280;6086;43.546;26.474;2022-08-19T06:53:58;98894.56;;;28.65;98.27
12051;BME280;6086;43.546;26.474;2022-08-19T06:56:27;98893.44;;;28.66;94.38
12051;BME280;6086;43.546;26.474;2022-08-19T06:58:58;98891.63;;;28.70;96.62
12051;BME280;6086;43.546;26.474;2022-08-19T07:01:26;98891.63;;;28.70;94.74
12051;BME280;6086;43.546;26.474;2022-08-19T07:04:08;98889.69;;;28.79;96.47
12051;BME280;6086;43.546;26.474;2022-08-19T07:06:36;98889.03;;;28.90;98.07
12051;BME280;6086;43.546;26.474;2022-08-19T07:09:03;98889.81;;;29.08;95.11
12051;BME280;6086;43.546;26.474;2022-08-19T07:11:30;98892.91;;;29.15;88.35
12051;BME280;6086;43.546;26.474;2022-08-19T07:13:59;98891.44;;;29.09;90.37
12051;BME280;6086;43.546;26.474;2022-08-19T07:16:27;98884.81;;;29.10;91.13
12051;BME280;6086;43.546;26.474;2022-08-19T07:18:54;98882.53;;;29.12;89.64
12051;BME280;6086;43.546;26.474;2022-08-19T07:21:23;98880.41;;;29.17;91.01
12051;BME280;6086;43.546;26.474;2022-08-19T07:23:52;98885.09;;;29.25;89.84
12051;BME280;6086;43.546;26.474;2022-08-19T07:26:23;98889.31;;;29.31;87.93
12051;BME280;6086;43.546;26.474;2022-08-19T07:28:51;98885.03;;;29.42;86.68
12051;BME280;6086;43.546;26.474;2022-08-19T07:31:22;98883.41;;;29.49;90.90
12051;BME280;6086;43.546;26.474;2022-08-19T07:33:51;98884.03;;;29.55;86.09
12051;BME280;6086;43.546;26.474;2022-08-19T07:36:26;98891.03;;;29.52;86.96
12051;BME280;6086;43.546;26.474;2022-08-19T07:38:54;98884.34;;;29.62;84.79
12051;BME280;6086;43.546;26.474;2022-08-19T07:41:23;98890.16;;;29.69;85.92
12051;BME280;6086;43.546;26.474;2022-08-19T07:44:03;98896.47;;;29.78;84.88
12051;BME280;6086;43.546;26.474;2022-08-19T07:46:35;98891.00;;;29.61;85.03
12051;BME280;6086;43.546;26.474;2022-08-19T07:49:04;98896.06;;;29.50;87.32
12051;BME280;6086;43.546;26.474;2022-08-19T07:51:32;98892.72;;;29.74;83.07
12051;BME280;6086;43.546;26.474;2022-08-19T07:53:59;98892.59;;;29.70;82.78
12051;BME280;6086;43.546;26.474;2022-08-19T07:56:26;98898.38;;;29.86;83.73
12051;BME280;6086;43.546;26.474;2022-08-19T07:58:53;98903.28;;;29.80;81.48
12051;BME280;6086;43.546;26.474;2022-08-19T08:01:22;98898.22;;;29.82;81.28
12051;BME280;6086;43.546;26.474;2022-08-19T08:03:54;98887.31;;;29.86;79.66
12051;BME280;6086;43.546;26.474;2022-08-19T08:06:38;98889.94;;;29.82;81.16
12051;BME280;6086;43.546;26.474;2022-08-19T08:09:24;98890.22;;;29.89;80.63
12051;BME280;6086;43.546;26.474;2022-08-19T08:11:53;98885.34;;;29.86;80.59
12051;BME280;6086;43.546;26.474;2022-08-19T08:14:24;98890.50;;;29.96;79.10
12051;BME280;6086;43.546;26.474;2022-08-19T08:16:52;98880.75;;;29.99;78.55
12051;BME280;6086;43.546;26.474;2022-08-19T08:19:22;98882.69;;;30.07;78.93
12051;BME280;6086;43.546;26.474;2022-08-19T08:21:50;98876.97;;;30.03;79.27
12051;BME280;6086;43.546;26.474;2022-08-19T08:24:18;98877.75;;;30.12;79.81
12051;BME280;6086;43.546;26.474;2022-08-19T08:26:45;98864.91;;;30.16;78.57
12051;BME280;6086;43.546;26.474;2022-08-19T08:29:12;98862.94;;;30.17;79.61
12051;BME280;6086;43.546;26.474;2022-08-19T08:31:42;98871.78;;;30.10;80.53
12051;BME280;6086;43.546;26.474;2022-08-19T08:34:11;98879.69;;;30.41;75.50
12051;BME280;6086;43.546;26.474;2022-08-19T08:36:43;98872.00;;;30.46;74.98
12051;BME280;6086;43.546;26.474;2022-08-19T08:39:12;98867.63;;;30.45;73.11
12051;BME280;6086;43.546;26.474;2022-08-19T08:41:45;98873.97;;;30.46;74.42
12051;BME280;6086;43.546;26.474;2022-08-19T08:44:17;98874.66;;;30.63;74.63
12051;BME280;6086;43.546;26.474;2022-08-19T08:46:47;98875.53;;;30.76;73.00
12051;BME280;6086;43.546;26.474;2022-08-19T08:49:23;98869.25;;;30.87;72.65
12051;BME280;6086;43.546;26.474;2022-08-19T08:51:59;98881.34;;;30.95;73.06
12051;BME280;6086;43.546;26.474;2022-08-19T08:54:32;98880.00;;;31.01;72.69
12051;BME280;6086;43.546;26.474;2022-08-19T08:57:00;98875.63;;;31.00;72.50
12051;BME280;6086;43.546;26.474;2022-08-19T08:59:31;98865.44;;;30.92;69.03
12051;BME280;6086;43.546;26.474;2022-08-19T09:02:00;98866.41;;;30.75;72.99
12051;BME280;6086;43.546;26.474;2022-08-19T09:04:27;98871.03;;;31.04;70.77
12051;BME280;6086;43.546;26.474;2022-08-19T09:07:17;98868.56;;;31.23;69.91
12051;BME280;6086;43.546;26.474;2022-08-19T09:09:49;98873.13;;;31.39;69.50
12051;BME280;6086;43.546;26.474;2022-08-19T09:12:23;98859.16;;;31.48;67.36
12051;BME280;6086;43.546;26.474;2022-08-19T09:14:55;98864.00;;;31.39;67.40
12051;BME280;6086;43.546;26.474;2022-08-19T09:17:26;98873.44;;;31.05;65.73
12051;BME280;6086;43.546;26.474;2022-08-19T09:19:58;98854.13;;;30.85;70.55
12051;BME280;6086;43.546;26.474;2022-08-19T09:22:29;98859.94;;;30.71;71.09
12051;BME280;6086;43.546;26.474;2022-08-19T09:24:56;98859.19;;;30.83;71.08
12051;BME280;6086;43.546;26.474;2022-08-19T09:27:24;98862.72;;;31.04;69.53
12051;BME280;6086;43.546;26.474;2022-08-19T09:29:52;98860.06;;;30.95;69.13
12051;BME280;6086;43.546;26.474;2022-08-19T09:32:19;98867.22;;;31.08;67.84
12051;BME280;6086;43.546;26.474;2022-08-19T09:34:46;98858.31;;;31.23;65.91
12051;BME280;6086;43.546;26.474;2022-08-19T09:37:14;98861.34;;;31.30;64.34
12051;BME280;6086;43.546;26.474;2022-08-19T09:39:42;98853.34;;;31.29;63.45
12051;BME280;6086;43.546;26.474;2022-08-19T09:42:09;98856.72;;;31.34;63.14
12051;BME280;6086;43.546;26.474;2022-08-19T09:44:38;98865.63;;;31.64;63.36
12051;BME280;6086;43.546;26.474;2022-08-19T09:47:05;98857.94;;;31.81;67.90
12051;BME280;6086;43.546;26.474;2022-08-19T09:49:32;98854.81;;;31.95;63.18
12051;BME280;6086;43.546;26.474;2022-08-19T09:52:00;98850.06;;;31.59;63.31
12051;BME280;6086;43.546;26.474;2022-08-19T09:54:27;98860.75;;;31.49;65.93
12051;BME280;6086;43.546;26.474;2022-08-19T09:56:58;98848.78;;;31.45;64.25
12051;BME280;6086;43.546;26.474;2022-08-19T09:59:26;98844.34;;;31.20;64.43
12051;BME280;6086;43.546;26.474;2022-08-19T10:01:55;98848.16;;;31.15;62.26
12051;BME280;6086;43.546;26.474;2022-08-19T10:04:22;98847.63;;;31.34;64.03
12051;BME280;6086;43.546;26.474;2022-08-19T10:07:09;98840.47;;;31.57;64.80
12051;BME280;6086;43.546;26.474;2022-08-19T10:09:36;98841.22;;;31.78;60.47
12051;BME280;6086;43.546;26.474;2022-08-19T10:12:05;98839.94;;;31.87;59.75
12051;BME280;6086;43.546;26.474;2022-08-19T10:14:33;98844.09;;;31.93;57.59
12051;BME280;6086;43.546;26.474;2022-08-19T10:17:01;98848.56;;;31.86;57.45
12051;BME280;6086;43.546;26.474;2022-08-19T10:19:29;98834.03;;;31.77;59.29
12051;BME280;6086;43.546;26.474;2022-08-19T10:22:03;98837.00;;;31.36;60.27
12051;BME280;6086;43.546;26.474;2022-08-19T10:24:30;98841.00;;;31.26;60.80
12051;BME280;6086;43.546;26.474;2022-08-19T10:26:57;98841.03;;;31.62;60.78
12051;BME280;6086;43.546;26.474;2022-08-19T10:29:26;98839.22;;;31.90;59.05
12051;BME280;6086;43.546;26.474;2022-08-19T10:31:54;98843.03;;;31.86;56.22
12051;BME280;6086;43.546;26.474;2022-08-19T10:34:21;98841.09;;;31.86;57.58
12051;BME280;6086;43.546;26.474;2022-08-19T10:36:48;98842.34;;;32.01;55.15
12051;BME280;6086;43.546;26.474;2022-08-19T10:39:15;98834.38;;;31.87;57.70
12051;BME280;6086;43.546;26.474;2022-08-19T10:41:42;98832.88;;;31.90;58.54
12051;BME280;6086;43.546;26.474;2022-08-19T10:44:11;98827.94;;;31.83;58.15
12051;BME280;6086;43.546;26.474;2022-08-19T10:46:41;98832.19;;;31.93;57.69
12051;BME280;6086;43.546;26.474;2022-08-19T10:49:12;98840.72;;;31.76;56.13
12051;BME280;6086;43.546;26.474;2022-08-19T10:51:40;98830.25;;;31.69;55.66
12051;BME280;6086;43.546;26.474;2022-08-19T10:54:25;98833.25;;;31.76;55.74
12051;BME280;6086;43.546;26.474;2022-08-19T10:57:12;98833.00;;;31.81;57.48
12051;BME280;6086;43.546;26.474;2022-08-19T10:59:38;98835.41;;;31.95;52.83
12051;BME280;6086;43.546;26.474;2022-08-19T11:02:08;98845.69;;;32.18;55.11
12051;BME280;6086;43.546;26.474;2022-08-19T11:04:37;98829.25;;;32.37;52.95
12051;BME280;6086;43.546;26.474;2022-08-19T11:07:04;98821.63;;;32.34;54.31
12051;BME280;6086;43.546;26.474;2022-08-19T11:09:37;98827.31;;;32.14;56.82
12051;BME280;6086;43.546;26.474;2022-08-19T11:12:05;98817.75;;;31.51;57.94
12051;BME280;6086;43.546;26.474;2022-08-19T11:14:33;98817.75;;;31.39;62.02
12051;BME280;6086;43.546;26.474;2022-08-19T11:17:01;98819.72;;;31.75;55.27
12051;BME280;6086;43.546;26.474;2022-08-19T11:19:30;98823.75;;;32.01;54.23
12051;BME280;6086;43.546;26.474;2022-08-19T11:21:57;98819.22;;;32.33;55.90
12051;BME280;6086;43.546;26.474;2022-08-19T11:24:28;98811.97;;;32.56;52.19
12051;BME280;6086;43.546;26.474;2022-08-19T11:27:01;98812.50;;;32.73;51.23
12051;BME280;6086;43.546;26.474;2022-08-19T11:29:30;98812.00;;;32.44;50.84
12051;BME280;6086;43.546;26.474;2022-08-19T11:31:58;98803.06;;;32.62;50.19
12051;BME280;6086;43.546;26.474;2022-08-19T11:34:28;98806.34;;;32.80;51.68
12051;BME280;6086;43.546;26.474;2022-08-19T11:36:57;98792.69;;;33.02;50.06
12051;BME280;6086;43.546;26.474;2022-08-19T11:39:27;98799.41;;;33.16;49.30
12051;BME280;6086;43.546;26.474;2022-08-19T11:41:54;98787.75;;;32.96;50.33
12051;BME280;6086;43.546;26.474;2022-08-19T11:44:21;98796.44;;;32.94;49.67
12051;BME280;6086;43.546;26.474;2022-08-19T11:46:48;98792.44;;;33.22;48.00
12051;BME280;6086;43.546;26.474;2022-08-19T11:49:17;98792.91;;;33.40;46.03
12051;BME280;6086;43.546;26.474;2022-08-19T11:51:45;98793.63;;;33.52;47.86
12051;BME280;6086;43.546;26.474;2022-08-19T11:54:15;98792.53;;;33.57;45.55
12051;BME280;6086;43.546;26.474;2022-08-19T11:56:42;98789.28;;;33.70;46.38
12051;BME280;6086;43.546;26.474;2022-08-19T11:59:12;98777.88;;;33.41;45.62
12051;BME280;6086;43.546;26.474;2022-08-19T12:01:39;98783.59;;;33.48;45.05
12051;BME280;6086;43.546;26.474;2022-08-19T12:04:07;98788.78;;;33.49;46.08
12051;BME280;6086;43.546;26.474;2022-08-19T12:06:37;98790.22;;;33.28;45.29
12051;BME280;6086;43.546;26.474;2022-08-19T12:09:06;98791.19;;;33.05;45.27
12051;BME280;6086;43.546;26.474;2022-08-19T12:11:36;98783.56;;;33.02;44.99
12051;BME280;6086;43.546;26.474;2022-08-19T12:14:03;98778.44;;;32.88;47.59
12051;BME280;6086;43.546;26.474;2022-08-19T12:16:31;98780.50;;;33.07;47.33
12051;BME280;6086;43.546;26.474;2022-08-19T12:18:58;98787.47;;;33.01;47.99
12051;BME280;6086;43.546;26.474;2022-08-19T12:21:29;98777.09;;;33.13;46.22
12051;BME280;6086;43.546;26.474;2022-08-19T12:23:59;98782.56;;;33.09;45.17
12051;BME280;6086;43.546;26.474;2022-08-19T12:26:28;98769.59;;;32.98;45.72
12051;BME280;6086;43.546;26.474;2022-08-19T12:28:58;98771.19;;;32.84;46.40
12051;BME280;6086;43.546;26.474;2022-08-19T12:31:26;98764.28;;;32.78;45.85
12051;BME280;6086;43.546;26.474;2022-08-19T12:34:25;98767.41;;;32.92;45.92
12051;BME280;6086;43.546;26.474;2022-08-19T12:36:55;98769.69;;;33.17;45.68
12051;BME280;6086;43.546;26.474;2022-08-19T12:39:22;98771.97;;;33.27;43.96
12051;BME280;6086;43.546;26.474;2022-08-19T12:41:50;98771.41;;;33.37;43.46
12051;BME280;6086;43.546;26.474;2022-08-19T12:44:18;98774.09;;;33.33;43.93
12051;BME280;6086;43.546;26.474;2022-08-19T12:46:46;98772.31;;;33.25;44.35
12051;BME280;6086;43.546;26.474;2022-08-19T12:49:14;98762.88;;;33.14;46.58
12051;BME280;6086;43.546;26.474;2022-08-19T12:51:42;98767.56;;;33.26;45.33
12051;BME280;6086;43.546;26.474;2022-08-19T12:54:09;98764.16;;;33.17;44.71
12051;BME280;6086;43.546;26.474;2022-08-19T12:56:36;98768.97;;;33.20;44.73
12051;BME280;6086;43.546;26.474;2022-08-19T12:59:03;98777.53;;;33.27;44.52
12051;BME280;6086;43.546;26.474;2022-08-19T13:01:32;98766.72;;;33.10;44.03
12051;BME280;6086;43.546;26.474;2022-08-19T13:03:59;98770.78;;;33.28;44.47
12051;BME280;6086;43.546;26.474;2022-08-19T13:06:26;98762.03;;;33.26;42.93